Data for 07/07/2006

Time Sea-Level Adjusted Pressure Absolute Pressure Temperature Relative Humidity Dew Point   
(mb) (inHg) (mb) (inHg) (C) (F) (%) (C) (F)
00:05 1024 30.24 853 25.19 15.5 59.9 87 13.3 56
00:10 1024 30.24 853 25.19 15.3 59.5 87 13.2 55.7
00:15 1024 30.24 853 25.19 15.3 59.5 89 13.5 56.3
00:20 1024 30.24 853 25.19 15.2 59.4 90 13.6 56.5
00:25 1024 30.24 853 25.19 15.3 59.5 90 13.6 56.5
00:30 1024 30.24 853 25.19 15.5 59.8 83 12.6 54.8
00:35 1024 30.24 853 25.19 15.6 60 85 13 55.4
00:40 1024 30.24 853 25.19 15.6 60 87 13.5 56.3
00:45 1024 30.24 853 25.19 15.7 60.2 84 13 55.4
00:50 1024 30.24 853 25.19 15.5 59.9 85 13 55.3
00:55 1024 30.24 853 25.19 15.4 59.8 84 12.8 55
01:00 1024 30.24 853 25.19 15.4 59.7 81 12.2 53.9
01:05 1024 30.24 853 25.19 15.6 60 82 12.5 54.4
01:10 1024 30.24 853 25.19 15.6 60.2 78 11.9 53.4
01:15 1023 30.21 853 25.19 15.6 60 78 11.8 53.2
01:20 1023 30.21 852 25.16 15.5 59.9 75 11.2 52.1
01:25 1023 30.21 852 25.16 15.2 59.4 77 11.2 52.1
01:30 1023 30.21 852 25.16 15.3 59.5 70 9.9 49.8
01:35 1022 30.18 852 25.16 15.5 60 69 10 50.1
01:40 1022 30.18 852 25.16 15.8 60.4 70 10.3 50.6
01:45 1022 30.18 851 25.13 15.8 60.5 71 10.7 51.3
01:50 1022 30.18 851 25.13 15.7 60.3 71 10.6 51
01:55 1022 30.18 851 25.13 15.7 60.2 74 11 51.8
02:00 1023 30.21 852 25.16 15.5 59.9 77 11.5 52.7
02:05 1023 30.21 852 25.16 15.3 59.6 74 10.8 51.5
02:10 1023 30.21 852 25.16 15.3 59.6 76 11.1 52
02:15 1023 30.21 852 25.16 15.3 59.6 75 10.9 51.7
02:20 1023 30.21 853 25.19 15.4 59.8 72 10.5 51
02:25 1023 30.21 853 25.19 15.6 60.1 69 10.1 50.2
02:30 1023 30.21 853 25.19 15.7 60.3 70 10.3 50.5
02:35 1023 30.21 853 25.19 15.6 60.1 69 10.1 50.2
02:40 1023 30.21 853 25.19 15.6 60 72 10.7 51.2
02:45 1023 30.21 853 25.19 15.3 59.5 73 10.4 50.8
02:50 1024 30.24 853 25.19 15.1 59.2 74 10.5 50.9
02:55 1024 30.24 853 25.19 15 59 75 10.6 51.1
03:00 1024 30.24 853 25.19 14.9 58.7 75 10.6 51
03:05 1024 30.24 853 25.19 14.8 58.6 78 11.1 52
03:10 1024 30.24 853 25.19 14.7 58.4 79 11.1 51.9
03:15 1024 30.24 853 25.19 14.7 58.5 79 11.1 51.9
03:20 1024 30.24 853 25.19 14.7 58.5 81 11.4 52.6
03:25 1024 30.24 853 25.19 14.5 58.1 82 11.5 52.7
03:30 1024 30.24 854 25.22 14.5 58.1 78 10.7 51.3
03:35 1024 30.24 854 25.22 14.7 58.5 78 10.9 51.7
03:40 1025 30.27 854 25.22 14.7 58.5 78 11 51.7
03:45 1024 30.24 854 25.22 14.7 58.5 82 11.6 52.9
03:50 1024 30.24 854 25.22 14.2 57.6 84 11.6 52.9
03:55 1024 30.24 854 25.22 14.1 57.4 86 11.8 53.3
04:00 1024 30.24 854 25.22 14 57.3 88 12 53.7
04:05 1024 30.24 854 25.22 13.7 56.7 89 12 53.7
04:10 1024 30.24 854 25.22 13.9 57 90 12.3 54.1
04:15 1024 30.24 853 25.19 14.1 57.4 91 12.6 54.7
04:20 1024 30.24 853 25.19 14.3 57.8 88 12.5 54.4
04:25 1024 30.24 853 25.19 14.1 57.4 91 12.7 54.8
04:30 1024 30.24 853 25.19 13.8 56.9 90 12.2 53.9
04:35 1024 30.24 853 25.19 13.9 57 91 12.5 54.4
04:40 1024 30.24 854 25.22 13.6 56.5 91 12.2 53.9
04:45 1024 30.24 854 25.22 13.5 56.3 89 11.7 53.1
04:50 1025 30.27 854 25.22 13.5 56.3 87 11.4 52.5
04:55 1025 30.27 854 25.22 13.6 56.4 88 11.6 52.9
05:00 1025 30.27 854 25.22 13.7 56.7 84 11.2 52.1
05:05 1025 30.27 854 25.22 13.7 56.7 85 11.3 52.3
05:10 1025 30.27 854 25.22 13.7 56.6 85 11.2 52.1
05:15 1025 30.27 854 25.22 13.7 56.7 85 11.3 52.4
05:20 1025 30.27 854 25.22 13.7 56.7 86 11.4 52.6
05:25 1025 30.27 854 25.22 13.4 56.1 87 11.3 52.4
05:30 1025 30.27 854 25.22 13.2 55.7 88 11.3 52.3
05:35 1025 30.27 854 25.22 13.3 56 88 11.3 52.4
05:40 1025 30.27 854 25.22 13.4 56.2 88 11.5 52.6
05:45 1025 30.27 854 25.22 13.5 56.3 86 11.2 52.1
05:50 1025 30.27 854 25.22 13.3 55.9 86 11.1 51.9
05:55 1025 30.27 854 25.22 13.1 55.6 88 11.3 52.3
06:00 1025 30.27 854 25.22 12.7 54.8 90 11.1 52
06:05 1025 30.27 854 25.22 12.6 54.7 90 11 51.8
06:10 1025 30.27 854 25.22 12.5 54.4 90 11 51.7
06:15 1025 30.27 854 25.22 12.4 54.4 90 10.9 51.7
06:20 1025 30.27 854 25.22 12.4 54.3 91 11 51.8
06:25 1024 30.24 854 25.22 12.5 54.6 90 10.9 51.6
06:30 1024 30.24 854 25.22 12.7 54.8 89 10.9 51.5
06:35 1024 30.24 854 25.22 12.9 55.2 88 11 51.8
06:40 1024 30.24 854 25.22 13 55.5 86 10.8 51.5
06:45 1025 30.27 854 25.22 13.2 55.7 87 11 51.8
06:50 1025 30.27 854 25.22 13.4 56.1 85 10.9 51.6
06:55 1025 30.27 854 25.22 13.5 56.2 85 11 51.9
07:00 1025 30.27 854 25.22 13.5 56.2 83 10.7 51.3
07:05 1025 30.27 854 25.22 13.8 56.9 81 10.6 51.1
07:10 1025 30.27 854 25.22 14 57.2 85 11.5 52.7
07:15 1025 30.27 854 25.22 14 57.1 84 11.4 52.5
07:20 1025 30.27 855 25.25 14.1 57.3 83 11.2 52.1
07:25 1026 30.3 855 25.25 14.8 58.6 81 11.6 52.8
07:30 1026 30.3 855 25.25 15.5 60 77 11.5 52.7
07:35 1026 30.3 855 25.25 16.3 61.3 74 11.6 53
07:40 1026 30.3 855 25.25 16.5 61.7 74 12 53.6
07:45 1026 30.3 855 25.25 16.6 61.9 75 12.1 53.9
07:50 1026 30.3 855 25.25 16.8 62.3 71 11.5 52.8
07:55 1026 30.3 855 25.25 16.8 62.3 71 11.5 52.7
08:00 1026 30.3 855 25.25 16.7 62.1 71 11.4 52.6
08:05 1026 30.3 855 25.25 17.2 63 68 11.3 52.4
08:10 1026 30.3 855 25.25 17.6 63.6 69 11.8 53.3
08:15 1026 30.3 855 25.25 17.8 64 68 11.9 53.5
08:20 1026 30.3 855 25.25 16.8 62.3 73 12 53.6
08:25 1026 30.3 855 25.25 16.1 60.9 74 11.6 52.9
08:30 1026 30.3 855 25.25 16.1 61 75 11.8 53.2
08:35 1026 30.3 855 25.25 16.2 61.1 77 12.2 53.9
08:40 1025 30.27 855 25.25 16.3 61.4 75 11.9 53.3
08:45 1025 30.27 855 25.25 16.2 61.2 75 11.8 53.3
08:50 1025 30.27 854 25.22 16.5 61.6 76 12.3 54.1
08:55 1025 30.27 854 25.22 17 62.5 73 12.2 54
09:00 1025 30.27 855 25.25 17 62.7 71 11.7 53.1
09:05 1025 30.27 855 25.25 17.2 63 65 10.8 51.4
09:10 1025 30.27 855 25.25 17.7 63.8 65 11 51.8
09:15 1025 30.27 855 25.25 17.9 64.2 63 10.8 51.5
09:20 1025 30.27 855 25.25 18.1 64.5 63 11.1 52
09:25 1025 30.27 855 25.25 18.5 65.2 60 10.8 51.4
09:30 1025 30.27 855 25.25 18.8 65.8 59 10.6 51.1
09:35 1025 30.27 855 25.25 19.7 67.4 55 10.6 51.1
09:40 1025 30.27 855 25.25 20.8 69.4 51 10.5 51
09:45 1026 30.3 855 25.25 21.5 70.7 49 10.4 50.7
09:50 1025 30.27 855 25.25 21.3 70.4 50 10.6 51
09:55 1025 30.27 855 25.25 21.2 70.1 50 10.4 50.7
10:00 1025 30.27 855 25.25 21.4 70.5 46 9.5 49.2
10:05 1025 30.27 855 25.25 22 71.6 44 9.3 48.7
10:10 1025 30.27 855 25.25 22 71.5 46 9.9 49.8
10:15 1025 30.27 855 25.25 21.9 71.3 46 9.8 49.6
10:20 1026 30.3 855 25.25 22.1 71.8 44 9.4 48.9
10:25 1026 30.3 855 25.25 22.9 73.2 43 10 49.9
10:30 1026 30.3 855 25.25 22.4 72.3 48 11.1 52
10:35 1026 30.3 855 25.25 21.4 70.6 51 11 51.7
10:40 1026 30.3 855 25.25 21.4 70.5 52 11.2 52.2
10:45 1026 30.3 855 25.25 21.6 71 52 11.4 52.5
10:50 1026 30.3 855 25.25 21.9 71.5 51 11.5 52.7
10:55 1026 30.3 855 25.25 21.1 70.1 54 11.6 52.9
11:00 1026 30.3 855 25.25 21.1 70 51 10.7 51.2
11:05 1026 30.3 855 25.25 21.6 70.8 53 11.7 53
11:10 1026 30.3 855 25.25 21.8 71.3 49 10.8 51.4
11:15 1026 30.3 855 25.25 22.9 73.2 44 10.2 50.3
11:20 1025 30.27 855 25.25 23.4 74.1 45 10.8 51.5
11:25 1025 30.27 855 25.25 22.7 72.9 46 10.8 51.4
11:30 1025 30.27 854 25.22 22.1 71.7 48 10.8 51.4
11:35 1025 30.27 854 25.22 22.2 71.9 47 10.5 50.9
11:40 1025 30.27 854 25.22 23 73.3 44 10.4 50.7
11:45 1025 30.27 854 25.22 22.8 73.1 45 10.4 50.7
11:50 1025 30.27 854 25.22 22.9 73.2 47 11.1 52
11:55 1025 30.27 854 25.22 22.6 72.6 48 11 51.8
12:00 1025 30.27 854 25.22 23.9 75 41 9.9 49.8
12:05 1025 30.27 854 25.22 25 77 39 10.4 50.8
12:10 1025 30.27 854 25.22 25 77 42 11.3 52.3
12:15 1025 30.27 854 25.22 25.1 77.2 39 10.5 50.9
12:20 1025 30.27 854 25.22 25.2 77.3 40 10.7 51.2
12:25 1025 30.27 854 25.22 25 77.1 40 10.7 51.2
12:30 1025 30.27 854 25.22 25.5 77.8 37 10 50
12:35 1025 30.27 854 25.22 25.3 77.5 38 10.1 50.2
12:40 1025 30.27 854 25.22 26.2 79.2 34 9.4 49
12:45 1025 30.27 854 25.22 25.6 78 38 10.6 51
12:50 1025 30.27 854 25.22 25.2 77.4 38 9.9 49.9
12:55 1025 30.27 854 25.22 24.8 76.7 40 10.4 50.6
13:00 1025 30.27 854 25.22 23.8 74.9 40 9.7 49.4
13:05 1025 30.27 854 25.22 25 77 35 8.7 47.7
13:10 1025 30.27 854 25.22 25.6 78 35 9.2 48.6
13:15 1025 30.27 854 25.22 25.9 78.5 34 9 48.2
13:20 1025 30.27 854 25.22 25.4 77.6 39 10.6 51.1
13:25 1024 30.24 854 25.22 25.4 77.6 36 9.4 49
13:30 1024 30.24 854 25.22 24.9 76.9 38 9.7 49.5
13:35 1024 30.24 854 25.22 24.1 75.3 39 9.5 49
13:40 1024 30.24 854 25.22 23.8 74.8 39 9.1 48.4
13:45 1025 30.27 854 25.22 24 75.2 39 9.3 48.7
13:50 1024 30.24 854 25.22 24.7 76.4 37 9.2 48.5
13:55 1024 30.24 854 25.22 25 77 36 9 48.2
14:00 1024 30.24 854 25.22 25.1 77.2 36 9.3 48.7
14:05 1024 30.24 854 25.22 26.1 79.1 34 9.4 48.8
14:10 1024 30.24 853 25.19 26.8 80.2 34 10 50.1
14:15 1024 30.24 853 25.19 26.3 79.3 37 10.8 51.4
14:20 1024 30.24 853 25.19 25.7 78.2 38 10.4 50.7
14:25 1024 30.24 853 25.19 24.7 76.5 39 9.9 49.9
14:30 1024 30.24 854 25.22 24.3 75.8 40 10.1 50.2
14:35 1024 30.24 854 25.22 24.2 75.6 40 10 49.9
14:40 1024 30.24 854 25.22 24.6 76.3 39 10.1 50.2
14:45 1024 30.24 854 25.22 24 75.1 40 9.9 49.8
14:50 1025 30.27 854 25.22 23.8 74.9 42 10.4 50.6
14:55 1025 30.27 854 25.22 23.1 73.6 43 10.2 50.3
15:00 1025 30.27 854 25.22 23.4 74 40 9.3 48.7
15:05 1025 30.27 854 25.22 23.9 75 41 9.9 49.7
15:10 1025 30.27 854 25.22 24.4 76 40 10.1 50.1
15:15 1025 30.27 854 25.22 24.6 76.3 39 10.1 50.2
15:20 1025 30.27 854 25.22 24.8 76.7 37 9.4 48.9
15:25 1025 30.27 854 25.22 24.8 76.6 38 9.9 49.8
15:30 1025 30.27 854 25.22 24.7 76.4 39 10.1 50.1
15:35 1025 30.27 854 25.22 24.7 76.5 38 9.6 49.2
15:40 1025 30.27 854 25.22 24.2 75.5 39 9.4 49
15:45 1025 30.27 854 25.22 24.4 75.9 38 9.5 49
15:50 1025 30.27 854 25.22 24.4 76 37 9.2 48.5
15:55 1025 30.27 854 25.22 24.6 76.4 35 8.2 46.8
16:00 1025 30.27 854 25.22 25.7 78.2 34 9 48.2
16:05 1025 30.27 854 25.22 26 78.8 32 8.4 47.1
16:10 1025 30.27 854 25.22 25.3 77.6 34 8.4 47.1
16:15 1025 30.27 854 25.22 24.8 76.7 35 8.5 47.2
16:20 1025 30.27 854 25.22 25.1 77.1 38 9.8 49.6
16:25 1025 30.27 854 25.22 24.9 76.7 36 9.1 48.4
16:30 1025 30.27 854 25.22 24.5 76.2 40 10.3 50.5
16:35 1025 30.27 854 25.22 24.5 76 39 9.8 49.6
16:40 1025 30.27 854 25.22 24.8 76.6 40 10.4 50.7
16:45 1025 30.27 854 25.22 24.3 75.7 44 11.4 52.5
16:50 1025 30.27 854 25.22 23.9 75.1 41 10.1 50.1
16:55 1025 30.27 854 25.22 23.9 75 40 9.6 49.3
17:00 1025 30.27 854 25.22 23.9 75 42 10.5 50.9
17:05 1025 30.27 854 25.22 24 75.2 41 10.2 50.4
17:10 1025 30.27 854 25.22 24 75.1 42 10.4 50.7
17:15 1025 30.27 854 25.22 24.2 75.6 37 8.8 47.8
17:20 1025 30.27 854 25.22 25.2 77.3 38 10.1 50.2
17:25 1025 30.27 854 25.22 25.9 78.5 32 8.4 47.1
17:30 1025 30.27 854 25.22 25.9 78.6 32 8.1 46.6
17:35 1025 30.27 854 25.22 26.3 79.3 32 8.6 47.5
17:40 1025 30.27 854 25.22 26.7 80 30 7.8 46
17:45 1025 30.27 854 25.22 26.8 80.2 28 7.3 45.1
17:50 1025 30.27 854 25.22 26.4 79.6 30 7.5 45.5
17:55 1025 30.27 854 25.22 25.9 78.6 31 7.9 46.2
18:00 1025 30.27 854 25.22 25.7 78.2 31 7.6 45.8
18:05 1025 30.27 854 25.22 25.6 78.1 32 8.1 46.6
18:10 1025 30.27 854 25.22 25.6 78.2 33 8.2 46.8
18:15 1025 30.27 854 25.22 25.6 78.2 35 9.1 48.4
18:20 1025 30.27 854 25.22 25.2 77.3 34 8.6 47.4
18:25 1025 30.27 854 25.22 24.8 76.7 35 8.4 47
18:30 1025 30.27 854 25.22 24.8 76.6 34 8 46.4
18:35 1025 30.27 854 25.22 24.8 76.6 35 8.3 47
18:40 1025 30.27 854 25.22 24.8 76.6 33 7.6 45.7
18:45 1025 30.27 854 25.22 24.8 76.6 33 7.8 46
18:50 1025 30.27 854 25.22 24.9 76.8 34 8.2 46.8
18:55 1025 30.27 854 25.22 24.9 76.7 34 8.3 46.9
19:00 1025 30.27 854 25.22 24.7 76.4 35 8.2 46.8
19:05 1025 30.27 854 25.22 24.8 76.7 34 8.2 46.7
19:10 1025 30.27 854 25.22 24.6 76.3 35 8.2 46.8
19:15 1025 30.27 854 25.22 24.6 76.2 35 8.3 46.9
19:20 1025 30.27 854 25.22 24.4 76 37 8.8 47.9
19:25 1025 30.27 854 25.22 24.4 75.9 35 8 46.4
19:30 1025 30.27 854 25.22 24.2 75.5 37 8.7 47.6
19:35 1025 30.27 854 25.22 24.1 75.4 37 8.7 47.7
19:40 1025 30.27 854 25.22 24.1 75.4 38 9 48.1
19:45 1025 30.27 854 25.22 24.1 75.4 37 8.9 48.1
19:50 1025 30.27 854 25.22 24.1 75.4 39 9.5 49.1
19:55 1025 30.27 854 25.22 23.9 75 40 9.7 49.5
20:00 1025 30.27 854 25.22 23.6 74.5 43 10.4 50.7
20:05 1025 30.27 854 25.22 23.4 74.1 41 9.6 49.2
20:10 1025 30.27 854 25.22 23.3 74 42 9.8 49.7
20:15 1025 30.27 854 25.22 23.3 73.9 44 10.5 50.8
20:20 1025 30.27 854 25.22 23.1 73.6 45 10.9 51.5
20:25 1025 30.27 854 25.22 23 73.4 47 11.2 52.2
20:30 1025 30.27 854 25.22 22.8 73 48 11.4 52.5
20:35 1025 30.27 854 25.22 22.3 72.1 48 11 51.8
20:40 1025 30.27 855 25.25 22.1 71.7 51 11.6 52.8
20:45 1025 30.27 855 25.25 21.8 71.2 50 10.9 51.7
20:50 1025 30.27 855 25.25 21.6 70.9 51 11.1 52
20:55 1025 30.27 855 25.25 21.4 70.4 54 11.9 53.4
21:00 1025 30.27 855 25.25 21.5 70.6 48 10.1 50.2
21:05 1025 30.27 855 25.25 21.5 70.7 48 10.2 50.3
21:10 1025 30.27 855 25.25 21.4 70.6 47 9.8 49.7
21:15 1025 30.27 855 25.25 21.2 70.2 51 10.9 51.7
21:20 1026 30.3 855 25.25 20.7 69.3 50 10.1 50.2
21:25 1026 30.3 855 25.25 20.9 69.6 48 9.7 49.5
21:30 1026 30.3 855 25.25 21.1 69.9 47 9.5 49
21:35 1026 30.3 855 25.25 20.8 69.5 48 9.5 49.1
21:40 1026 30.3 855 25.25 20.5 68.8 49 9.5 49.2
21:45 1026 30.3 855 25.25 20.3 68.5 51 10 50
21:50 1026 30.3 855 25.25 20 67.9 50 9.5 49
21:55 1026 30.3 855 25.25 19.7 67.4 51 9.3 48.7
22:00 1026 30.3 855 25.25 19.4 66.9 53 9.6 49.2
22:05 1026 30.3 855 25.25 19 66.3 53 9.4 48.9
22:10 1026 30.3 855 25.25 18.9 66.1 52 8.9 48
22:15 1026 30.3 855 25.25 19 66.2 48 8 46.5
22:20 1026 30.3 856 25.28 19.3 66.7 48 8.3 46.9
22:25 1026 30.3 856 25.28 19.1 66.4 46 7.5 45.4
22:30 1026 30.3 856 25.28 19.2 66.6 46 7.5 45.4
22:35 1026 30.3 856 25.28 19.2 66.6 48 8 46.5
22:40 1027 30.33 856 25.28 18.9 66 52 9 48.1
22:45 1027 30.33 856 25.28 18.4 65.1 53 8.7 47.7
22:50 1027 30.33 856 25.28 18.1 64.6 54 8.9 48
22:55 1027 30.33 856 25.28 17.9 64.2 55 8.7 47.7
23:00 1027 30.33 856 25.28 17.7 63.9 53 8.2 46.7
23:05 1027 30.33 856 25.28 17.6 63.8 55 8.5 47.3
23:10 1027 30.33 856 25.28 17.6 63.8 54 8.3 47
23:15 1027 30.33 856 25.28 17.8 64 53 8.1 46.6
23:20 1027 30.33 856 25.28 17.9 64.1 53 8.2 46.8
23:25 1027 30.33 856 25.28 17.6 63.7 54 8.3 47
23:30 1027 30.33 856 25.28 17.2 63 58 8.9 48
23:35 1027 30.33 856 25.28 16.7 62 59 8.7 47.6
23:40 1027 30.33 856 25.28 16.8 62.2 58 8.5 47.3
23:45 1027 30.33 856 25.28 17.1 62.9 58 8.8 47.8
23:50 1027 30.33 856 25.28 17 62.7 57 8.6 47.4
23:55 1027 30.33 856 25.28 17 62.6 56 8.3 46.9
24:00 1027 30.33 856 25.28 16.9 62.5 58 8.7 47.7